Time;durP1;ratioP1;P1;durP2;ratioP2;P2;SDS_P1;SDS_P2;PMS_P1;PMS_P2;Temp;Humidity;BMP_temperature;BMP_pressure;BME280_temperature;BME280_humidity;BME280_pressure;Samples;Min_cycle;Max_cycle;Signal;HPM_P1;HPM_P2
2023/04/28 00:01:20;;;;;;;12.60;5.97;;;5.80;96.40;;;;;;5198924;28;20549;-48
2023/04/28 00:03:50;;;;;;;10.70;5.50;;;5.70;96.30;;;;;;5185839;28;20344;-48
2023/04/28 00:06:21;;;;;;;13.70;5.70;;;5.70;96.30;;;;;;5189645;28;20657;-49
2023/04/28 00:08:51;;;;;;;14.50;6.70;;;5.70;96.50;;;;;;5181067;28;20199;-48
2023/04/28 00:11:22;;;;;;;10.33;5.50;;;5.70;96.70;;;;;;5206559;28;20238;-48
2023/04/28 00:13:53;;;;;;;10.30;5.27;;;5.60;96.90;;;;;;5183991;28;20671;-49
2023/04/28 00:16:23;;;;;;;9.40;4.40;;;5.60;97.20;;;;;;5201798;28;20179;-47
2023/04/28 00:18:54;;;;;;;14.13;5.93;;;5.60;97.20;;;;;;5179294;28;20230;-49
2023/04/28 00:21:24;;;;;;;9.40;5.47;;;5.60;97.20;;;;;;5195173;28;20669;-48
2023/04/28 00:23:55;;;;;;;8.83;5.10;;;5.60;97.30;;;;;;5186385;28;20214;-48
2023/04/28 00:26:25;;;;;;;10.47;5.07;;;5.60;97.70;;;;;;5203884;28;20195;-48
2023/04/28 00:28:56;;;;;;;11.80;6.63;;;5.60;98.00;;;;;;5189336;28;20203;-48
2023/04/28 00:31:27;;;;;;;5.23;4.73;;;5.60;98.40;;;;;;5189083;28;20627;-48
2023/04/28 00:33:57;;;;;;;5.90;4.83;;;5.60;98.20;;;;;;5202131;28;20226;-48
2023/04/28 00:36:31;;;;;;;10.60;5.50;;;5.50;98.00;;;;;;5188748;28;20199;-48
2023/04/28 00:39:01;;;;;;;5.50;3.97;;;5.50;97.90;;;;;;5206854;28;20187;-49
2023/04/28 00:41:34;;;;;;;8.83;4.83;;;5.50;98.10;;;;;;5189897;28;20443;-48
2023/04/28 00:44:05;;;;;;;8.00;5.30;;;5.50;98.20;;;;;;5210491;28;20661;-49
2023/04/28 00:46:36;;;;;;;5.67;5.13;;;5.40;98.50;;;;;;5203759;28;20528;-48
2023/04/28 00:49:06;;;;;;;8.10;4.83;;;5.40;98.20;;;;;;5203811;28;20468;-49
2023/04/28 00:51:37;;;;;;;8.93;4.70;;;5.40;98.00;;;;;;5207530;28;20214;-49
2023/04/28 00:54:12;;;;;;;8.03;4.33;;;5.40;98.00;;;;;;5205311;28;20249;-48
2023/04/28 00:56:43;;;;;;;7.47;4.73;;;5.40;98.20;;;;;;5205691;28;20190;-49
2023/04/28 00:59:14;;;;;;;14.10;4.93;;;5.40;98.20;;;;;;5209751;28;20568;-48
2023/04/28 01:01:45;;;;;;;11.93;4.00;;;5.30;98.20;;;;;;5189208;28;20531;-48
2023/04/28 01:04:19;;;;;;;13.13;4.27;;;5.30;98.50;;;;;;5188576;28;20211;-48
2023/04/28 01:06:52;;;;;;;4.67;3.90;;;5.30;98.70;;;;;;5187717;28;20244;-47
2023/04/28 01:09:23;;;;;;;12.10;4.77;;;5.40;98.50;;;;;;5206279;28;20432;-47
2023/04/28 01:11:54;;;;;;;7.50;4.10;;;5.40;98.50;;;;;;5206740;28;20925;-49
2023/04/28 01:14:25;;;;;;;5.87;4.00;;;5.40;98.50;;;;;;5202139;28;20281;-48
2023/04/28 01:16:55;;;;;;;6.27;4.03;;;5.40;98.60;;;;;;5205597;28;20973;-49
2023/04/28 01:19:27;;;;;;;4.30;3.90;;;5.40;98.80;;;;;;5188690;28;20502;-47
2023/04/28 01:21:57;;;;;;;6.53;4.23;;;5.40;98.90;;;;;;5206289;28;20247;-48
2023/04/28 01:24:28;;;;;;;4.57;4.10;;;5.40;98.70;;;;;;5188909;28;20462;-48
2023/04/28 01:26:58;;;;;;;6.43;4.53;;;5.40;98.90;;;;;;5188147;28;20280;-48
2023/04/28 01:29:29;;;;;;;11.10;4.13;;;5.40;99.00;;;;;;5186831;28;20202;-50
2023/04/28 01:32:00;;;;;;;11.53;4.50;;;5.40;99.30;;;;;;5187346;28;20849;-48
2023/04/28 01:34:30;;;;;;;12.57;4.37;;;5.40;99.50;;;;;;5204590;28;20205;-48
2023/04/28 01:37:01;;;;;;;11.20;4.90;;;5.30;99.60;;;;;;5188519;28;20305;-49
2023/04/28 01:39:31;;;;;;;7.80;4.93;;;5.30;99.90;;;;;;5208682;28;20176;-47
2023/04/28 01:42:02;;;;;;;8.43;4.30;;;5.30;99.90;;;;;;5208197;28;20269;-47
2023/04/28 01:44:33;;;;;;;9.67;4.70;;;5.30;99.90;;;;;;5202485;28;20203;-47
2023/04/28 01:47:04;;;;;;;5.03;3.83;;;5.20;99.90;;;;;;5204281;28;20502;-46
2023/04/28 01:49:35;;;;;;;16.90;4.57;;;5.20;99.90;;;;;;5187270;28;20440;-46
2023/04/28 01:52:06;;;;;;;10.30;4.10;;;5.20;99.90;;;;;;5204536;28;20241;-47
2023/04/28 01:54:36;;;;;;;6.23;4.03;;;5.10;99.90;;;;;;5207535;28;20193;-46
2023/04/28 01:57:07;;;;;;;4.50;4.10;;;5.10;99.90;;;;;;5211065;28;20177;-47
2023/04/28 01:59:37;;;;;;;7.27;3.93;;;5.10;99.90;;;;;;5206578;28;20173;-47
2023/04/28 02:02:10;;;;;;;4.67;3.70;;;5.00;99.90;;;;;;5206759;28;20700;-47
2023/04/28 02:04:41;;;;;;;7.90;3.90;;;5.00;99.90;;;;;;5200234;28;20201;-47
2023/04/28 02:07:11;;;;;;;10.00;3.77;;;5.10;99.90;;;;;;5200186;28;20458;-47
2023/04/28 02:09:42;;;;;;;4.70;4.00;;;5.00;99.90;;;;;;5202952;28;20627;-50
2023/04/28 02:12:12;;;;;;;9.60;4.33;;;5.00;99.90;;;;;;5205472;28;20306;-47
2023/04/28 02:14:43;;;;;;;5.10;3.60;;;5.00;99.90;;;;;;5204027;28;20261;-46
2023/04/28 02:17:14;;;;;;;5.93;3.67;;;5.00;99.90;;;;;;5204280;28;20183;-48
2023/04/28 02:19:45;;;;;;;7.07;3.70;;;5.00;99.90;;;;;;5187765;28;20181;-48
2023/04/28 02:22:15;;;;;;;4.07;3.47;;;5.00;99.90;;;;;;5204092;28;20207;-47
2023/04/28 02:24:46;;;;;;;8.83;3.90;;;5.00;99.90;;;;;;5202153;28;20280;-49
2023/04/28 02:27:17;;;;;;;6.63;3.30;;;5.00;99.90;;;;;;5209794;28;20177;-49
2023/04/28 02:29:48;;;;;;;5.87;2.90;;;4.90;99.90;;;;;;5205440;28;20190;-48
2023/04/28 02:32:18;;;;;;;3.83;3.50;;;4.90;99.90;;;;;;5205361;28;20692;-48
2023/04/28 02:34:55;;;;;;;8.33;4.10;;;4.90;99.90;;;;;;5202525;28;20476;-47
2023/04/28 02:37:26;;;;;;;5.17;3.80;;;5.00;99.90;;;;;;5200074;28;20235;-47
2023/04/28 02:39:57;;;;;;;5.20;3.13;;;4.90;99.90;;;;;;5185331;28;20945;-47
2023/04/28 02:42:27;;;;;;;5.77;4.17;;;4.90;99.90;;;;;;5200175;28;20255;-47
2023/04/28 02:44:58;;;;;;;4.57;4.10;;;4.80;99.90;;;;;;5204174;28;20187;-47
2023/04/28 02:47:28;;;;;;;7.50;4.17;;;4.80;99.90;;;;;;5184874;28;20262;-49
2023/04/28 02:49:59;;;;;;;3.40;3.10;;;4.80;99.90;;;;;;5186037;28;20185;-49
2023/04/28 02:52:30;;;;;;;8.23;4.07;;;4.80;99.90;;;;;;5185682;28;20192;-50
2023/04/28 02:55:02;;;;;;;3.53;3.23;;;4.50;99.90;;;;;;5203758;28;20183;-49
2023/04/28 02:57:33;;;;;;;6.10;3.63;;;4.70;99.90;;;;;;5185972;28;20285;-47
2023/04/28 03:00:04;;;;;;;5.57;3.30;;;4.70;99.90;;;;;;5203333;28;20465;-47
2023/04/28 03:02:35;;;;;;;6.83;4.00;;;4.70;99.90;;;;;;5202553;28;20192;-48
2023/04/28 03:05:06;;;;;;;5.70;3.40;;;4.80;99.90;;;;;;5209589;28;20438;-47
2023/04/28 03:07:36;;;;;;;5.50;3.10;;;4.70;99.90;;;;;;5205865;28;20501;-48
2023/04/28 03:10:07;;;;;;;6.80;3.90;;;4.70;99.90;;;;;;5187659;28;20231;-48
2023/04/28 03:12:38;;;;;;;3.67;3.33;;;4.70;99.90;;;;;;5203500;28;20276;-50
2023/04/28 03:15:09;;;;;;;8.33;3.97;;;4.70;99.90;;;;;;5204180;28;20514;-48
2023/04/28 03:17:40;;;;;;;6.13;3.70;;;4.70;99.90;;;;;;5203621;28;20208;-49
2023/04/28 03:20:11;;;;;;;5.73;4.13;;;4.70;99.90;;;;;;5201991;28;20437;-48
2023/04/28 03:22:42;;;;;;;9.50;4.10;;;4.70;99.90;;;;;;5184271;28;20531;-47
2023/04/28 03:25:13;;;;;;;4.70;3.67;;;4.70;99.90;;;;;;5182692;28;20511;-49
2023/04/28 03:27:43;;;;;;;6.03;3.97;;;4.70;99.90;;;;;;5205936;28;20177;-50
2023/04/28 03:30:14;;;;;;;3.33;3.03;;;4.70;99.90;;;;;;5209111;28;20179;-48
2023/04/28 03:35:18;;;;;;;4.77;3.43;;;4.60;99.90;;;;;;5204226;28;20660;-45
2023/04/28 03:37:49;;;;;;;4.50;2.80;;;4.60;99.90;;;;;;5205315;28;20554;-46
2023/04/28 03:40:20;;;;;;;8.10;3.23;;;4.60;99.90;;;;;;5203075;28;20221;-45
2023/04/28 03:42:50;;;;;;;3.73;3.40;;;4.70;99.90;;;;;;5200557;28;20531;-45
2023/04/28 03:45:21;;;;;;;3.23;2.60;;;4.70;99.90;;;;;;5199962;28;20214;-45
2023/04/28 03:47:51;;;;;;;4.93;3.60;;;4.70;99.90;;;;;;5198808;28;20189;-45
2023/04/28 03:50:22;;;;;;;3.93;3.53;;;4.70;99.90;;;;;;5200787;28;20570;-46
2023/04/28 03:52:53;;;;;;;6.40;3.43;;;4.60;99.90;;;;;;5200120;28;20184;-45
2023/04/28 03:55:24;;;;;;;8.13;3.30;;;4.70;99.90;;;;;;5202808;28;20227;-45
2023/04/28 03:57:55;;;;;;;5.77;3.33;;;4.70;99.90;;;;;;5217450;28;20652;-45
2023/04/28 04:00:26;;;;;;;4.57;3.00;;;4.70;99.90;;;;;;5205239;28;20450;-45
2023/04/28 04:02:56;;;;;;;6.43;3.87;;;4.70;99.90;;;;;;5209008;28;20184;-46
2023/04/28 04:05:27;;;;;;;4.10;3.50;;;4.80;99.90;;;;;;5203200;28;20275;-44
2023/04/28 04:07:58;;;;;;;5.63;3.40;;;4.80;99.90;;;;;;5204537;28;20250;-45
2023/04/28 04:10:28;;;;;;;6.73;3.43;;;4.90;99.90;;;;;;5218946;28;20207;-44
2023/04/28 04:12:59;;;;;;;4.80;3.47;;;4.90;99.90;;;;;;5199616;28;20669;-46
2023/04/28 04:15:30;;;;;;;3.33;3.00;;;5.00;99.90;;;;;;5219897;28;20279;-46
2023/04/28 04:18:02;;;;;;;5.07;3.03;;;5.10;99.90;;;;;;5214735;28;20192;-45
2023/04/28 04:20:32;;;;;;;6.10;4.17;;;5.20;99.90;;;;;;5202026;28;20506;-45
2023/04/28 04:23:03;;;;;;;4.23;3.40;;;5.30;99.90;;;;;;5221138;28;20441;-45
2023/04/28 04:25:34;;;;;;;10.47;5.10;;;5.50;99.90;;;;;;5208653;28;20277;-45
2023/04/28 04:28:05;;;;;;;9.67;3.50;;;5.50;99.90;;;;;;5206917;28;20245;-46
2023/04/28 04:30:35;;;;;;;3.53;3.10;;;5.60;99.90;;;;;;5202700;28;21058;-47
2023/04/28 04:33:07;;;;;;;7.00;3.53;;;5.80;99.90;;;;;;5205989;28;20198;-48
2023/04/28 04:35:38;;;;;;;4.10;3.70;;;6.00;99.90;;;;;;5207424;28;20191;-46
2023/04/28 04:38:09;;;;;;;6.87;4.20;;;6.40;99.90;;;;;;5224011;28;20442;-45
2023/04/28 04:40:39;;;;;;;5.67;3.00;;;6.60;99.90;;;;;;5208266;28;20867;-48
2023/04/28 04:43:10;;;;;;;5.43;3.77;;;6.70;99.60;;;;;;5209769;28;20524;-46
2023/04/28 04:45:40;;;;;;;4.40;3.20;;;6.70;99.20;;;;;;5211792;28;20186;-45
2023/04/28 04:48:11;;;;;;;5.03;3.50;;;7.00;98.80;;;;;;5227687;28;20194;-45
2023/04/28 04:50:43;;;;;;;6.13;3.67;;;7.50;96.70;;;;;;5206121;28;20225;-46
2023/04/28 04:53:14;;;;;;;10.90;3.63;;;7.80;94.20;;;;;;5221359;28;20227;-46
2023/04/28 04:55:44;;;;;;;10.63;3.67;;;8.00;93.60;;;;;;5192807;28;20464;-47
2023/04/28 04:58:15;;;;;;;3.93;3.50;;;8.40;90.70;;;;;;5204434;28;21267;-46
2023/04/28 05:00:46;;;;;;;4.13;3.73;;;8.80;86.10;;;;;;5202762;28;21455;-44
2023/04/28 05:03:16;;;;;;;18.63;4.07;;;8.80;83.20;;;;;;5214234;28;20207;-45
2023/04/28 05:05:47;;;;;;;7.00;3.47;;;8.60;82.50;;;;;;5205522;28;20530;-47
2023/04/28 05:08:18;;;;;;;11.27;4.23;;;8.50;82.40;;;;;;5205013;28;20228;-46
2023/04/28 05:10:49;;;;;;;4.13;3.13;;;8.60;82.70;;;;;;5203882;28;20868;-46
2023/04/28 05:13:20;;;;;;;6.57;3.73;;;8.40;82.30;;;;;;5201690;28;20199;-46
2023/04/28 05:15:51;;;;;;;3.50;2.90;;;8.60;82.50;;;;;;5203682;28;20188;-46
2023/04/28 05:18:21;;;;;;;6.00;3.23;;;9.80;77.80;;;;;;5202770;28;20438;-47
2023/04/28 05:20:52;;;;;;;18.00;3.80;;;11.30;65.60;;;;;;5204796;28;20531;-46
2023/04/28 05:23:23;;;;;;;15.67;4.40;;;12.50;58.20;;;;;;5205149;28;20199;-46
2023/04/28 05:25:54;;;;;;;3.40;2.93;;;13.30;52.70;;;;;;5203749;28;20706;-47
2023/04/28 05:28:24;;;;;;;6.00;3.43;;;13.70;50.80;;;;;;5201365;28;20582;-46
2023/04/28 05:30:55;;;;;;;4.87;3.50;;;14.50;48.30;;;;;;5219049;28;20706;-46
2023/04/28 05:33:26;;;;;;;3.03;2.67;;;14.80;46.20;;;;;;5202991;28;20211;-46
2023/04/28 05:35:57;;;;;;;8.10;3.43;;;14.80;45.00;;;;;;5201109;28;21059;-47
2023/04/28 05:38:27;;;;;;;9.87;3.70;;;14.90;45.10;;;;;;5203917;28;20188;-46
2023/04/28 05:40:58;;;;;;;4.00;3.70;;;15.70;44.10;;;;;;5203661;28;20191;-47
2023/04/28 05:43:29;;;;;;;5.60;3.43;;;15.90;42.10;;;;;;5204818;28;20219;-47
2023/04/28 05:46:00;;;;;;;3.27;3.00;;;16.20;41.50;;;;;;5205265;28;20215;-45
2023/04/28 05:48:30;;;;;;;5.60;3.20;;;16.20;41.00;;;;;;5204145;28;20183;-47
2023/04/28 05:51:01;;;;;;;8.80;2.37;;;16.50;40.20;;;;;;5202818;28;20481;-46
2023/04/28 05:53:32;;;;;;;6.10;3.27;;;16.90;38.90;;;;;;5203559;28;20726;-48
2023/04/28 05:56:02;;;;;;;4.17;2.90;;;16.70;39.50;;;;;;5205063;28;20244;-47
2023/04/28 05:58:33;;;;;;;4.00;2.90;;;16.70;38.80;;;;;;5198304;28;20187;-47
2023/04/28 06:01:04;;;;;;;4.90;3.10;;;16.80;38.80;;;;;;5204303;28;20183;-48
2023/04/28 06:03:35;;;;;;;9.13;3.70;;;17.50;38.20;;;;;;5221405;28;20214;-47
2023/04/28 06:06:06;;;;;;;12.13;2.87;;;17.90;37.00;;;;;;5205600;28;20474;-45
2023/04/28 06:08:38;;;;;;;4.73;3.30;;;17.50;36.80;;;;;;5203207;28;20199;-47
2023/04/28 06:11:08;;;;;;;6.13;3.60;;;17.40;36.90;;;;;;5197327;28;20993;-47
2023/04/28 06:13:39;;;;;;;9.93;3.90;;;17.40;36.60;;;;;;5202458;28;20526;-48
2023/04/28 06:16:10;;;;;;;3.63;3.30;;;17.30;37.10;;;;;;5205025;28;20186;-51
2023/04/28 06:18:40;;;;;;;6.80;3.77;;;17.40;36.90;;;;;;5203721;28;20183;-46
2023/04/28 06:21:11;;;;;;;4.13;3.43;;;17.20;36.60;;;;;;5186008;28;20326;-47
2023/04/28 06:23:41;;;;;;;7.30;3.60;;;17.10;36.60;;;;;;5205402;28;20260;-47
2023/04/28 06:26:12;;;;;;;4.77;4.20;;;16.90;37.20;;;;;;5217789;28;20192;-46
2023/04/28 06:28:43;;;;;;;7.03;3.10;;;16.20;37.70;;;;;;5204515;28;20185;-46
2023/04/28 06:31:14;;;;;;;8.30;3.60;;;16.00;38.30;;;;;;5202869;28;21048;-47
2023/04/28 06:33:44;;;;;;;8.57;3.63;;;16.30;37.80;;;;;;5199713;28;20215;-46
2023/04/28 06:36:16;;;;;;;7.23;3.60;;;16.90;37.40;;;;;;5218597;28;20184;-47
2023/04/28 06:38:47;;;;;;;9.70;3.20;;;17.40;36.10;;;;;;5200914;28;20179;-46
2023/04/28 06:41:17;;;;;;;8.13;3.60;;;18.20;35.90;;;;;;5202213;28;20453;-47
2023/04/28 06:43:49;;;;;;;7.43;3.53;;;19.00;34.00;;;;;;5202339;28;20215;-47
2023/04/28 06:46:20;;;;;;;8.43;3.43;;;18.40;33.70;;;;;;5203176;28;20192;-47
2023/04/28 06:48:51;;;;;;;6.60;2.90;;;18.00;34.40;;;;;;5205159;28;21016;-46
2023/04/28 06:51:21;;;;;;;3.97;3.07;;;17.60;35.30;;;;;;5196255;28;20203;-48
2023/04/28 06:53:52;;;;;;;5.33;3.20;;;17.80;35.20;;;;;;5202317;28;20211;-46
2023/04/28 06:56:23;;;;;;;4.20;3.20;;;17.90;34.10;;;;;;5201765;28;20195;-47
2023/04/28 06:58:55;;;;;;;18.20;3.03;;;17.80;35.70;;;;;;5197126;28;20199;-48
2023/04/28 07:01:26;;;;;;;7.83;2.87;;;17.00;37.50;;;;;;5196740;28;20188;-48
2023/04/28 07:03:57;;;;;;;8.70;3.07;;;17.70;35.80;;;;;;5203006;28;20525;-48
2023/04/28 07:06:28;;;;;;;4.23;2.90;;;18.00;35.70;;;;;;5186907;28;20198;-47
2023/04/28 07:08:59;;;;;;;3.43;2.97;;;18.30;33.70;;;;;;5218123;28;20202;-47
2023/04/28 07:11:32;;;;;;;5.13;3.13;;;17.70;34.60;;;;;;5200456;28;20462;-47
2023/04/28 07:14:02;;;;;;;4.47;2.47;;;17.50;34.20;;;;;;5203833;28;20245;-49
2023/04/28 07:16:33;;;;;;;3.43;2.57;;;17.40;34.10;;;;;;5201538;28;20434;-48
2023/04/28 07:19:03;;;;;;;2.53;2.33;;;17.10;34.20;;;;;;5197706;28;20273;-47
2023/04/28 07:21:34;;;;;;;3.07;2.63;;;17.60;34.00;;;;;;5192482;28;20196;-47
2023/04/28 07:24:05;;;;;;;6.53;2.60;;;18.10;33.50;;;;;;5190526;28;20548;-46
2023/04/28 07:26:36;;;;;;;7.63;3.03;;;18.90;33.00;;;;;;5197554;28;20194;-48
2023/04/28 07:29:07;;;;;;;3.80;2.93;;;19.40;32.20;;;;;;5211492;28;20450;-49
2023/04/28 07:31:38;;;;;;;5.77;2.80;;;19.10;31.90;;;;;;5196791;28;20731;-47
2023/04/28 07:34:09;;;;;;;8.10;3.17;;;18.60;32.10;;;;;;5195702;28;20470;-47
2023/04/28 07:36:40;;;;;;;2.87;2.43;;;18.40;32.90;;;;;;5204874;28;20663;-50
2023/04/28 07:39:10;;;;;;;7.63;3.10;;;18.70;32.90;;;;;;5194855;28;20278;-46
2023/04/28 07:41:41;;;;;;;5.27;2.60;;;18.70;32.30;;;;;;5193947;28;20829;-47
2023/04/28 07:44:11;;;;;;;4.67;2.97;;;19.20;32.80;;;;;;5198094;28;20211;-48
2023/04/28 07:46:42;;;;;;;7.40;2.57;;;19.50;31.30;;;;;;5194238;28;20186;-48
2023/04/28 07:49:13;;;;;;;7.50;2.90;;;19.90;31.10;;;;;;5198506;28;20291;-51
2023/04/28 07:51:43;;;;;;;4.37;2.83;;;19.70;31.10;;;;;;5195132;28;20238;-51
2023/04/28 07:54:14;;;;;;;3.00;2.57;;;19.30;31.40;;;;;;5197353;28;20204;-48
2023/04/28 07:56:45;;;;;;;4.73;3.03;;;18.60;31.50;;;;;;5199250;28;20620;-49
2023/04/28 07:59:16;;;;;;;4.20;2.60;;;18.10;32.90;;;;;;5216566;28;20207;-46
2023/04/28 08:01:47;;;;;;;13.73;3.13;;;19.30;32.60;;;;;;5199219;28;20454;-49
2023/04/28 08:04:17;;;;;;;2.50;2.30;;;19.50;31.40;;;;;;5196986;28;20297;-48
2023/04/28 08:06:48;;;;;;;3.50;2.90;;;19.00;31.50;;;;;;5214076;28;20191;-46
2023/04/28 08:09:19;;;;;;;13.43;3.37;;;18.80;32.30;;;;;;5198738;28;20187;-48
2023/04/28 08:11:49;;;;;;;4.43;3.00;;;17.90;32.70;;;;;;5192365;28;20196;-49
2023/04/28 08:14:20;;;;;;;4.60;3.53;;;17.70;33.30;;;;;;5181439;28;20195;-50
2023/04/28 08:16:51;;;;;;;4.73;3.10;;;17.90;34.00;;;;;;5195664;28;20266;-47
2023/04/28 08:19:22;;;;;;;3.27;2.97;;;17.90;33.60;;;;;;5196924;28;20187;-49
2023/04/28 08:21:52;;;;;;;11.53;3.13;;;18.00;33.60;;;;;;5196522;28;20187;-48
2023/04/28 08:24:23;;;;;;;2.87;2.40;;;18.50;33.20;;;;;;5197185;28;20838;-49
2023/04/28 08:26:54;;;;;;;9.03;3.03;;;18.10;33.10;;;;;;5194806;28;20183;-49
2023/04/28 08:29:24;;;;;;;3.70;2.70;;;18.10;33.00;;;;;;5197020;28;20186;-47
2023/04/28 08:31:55;;;;;;;5.70;2.60;;;17.70;33.30;;;;;;5196448;28;20465;-48
2023/04/28 08:34:26;;;;;;;12.60;3.20;;;17.40;34.10;;;;;;5200111;28;20294;-50
2023/04/28 08:36:57;;;;;;;11.40;2.97;;;17.80;34.30;;;;;;5191579;28;20328;-50
2023/04/28 08:39:29;;;;;;;3.33;3.17;;;18.20;33.60;;;;;;5201797;28;20261;-49
2023/04/28 08:42:03;;;;;;;5.90;2.83;;;17.20;34.10;;;;;;5192945;28;20469;-47
2023/04/28 08:44:39;;;;;;;4.63;3.10;;;16.30;35.20;;;;;;5195353;28;20870;-48
2023/04/28 08:47:13;;;;;;;5.60;3.20;;;15.80;36.60;;;;;;5191948;28;20433;-46
2023/04/28 08:49:44;;;;;;;2.67;2.50;;;15.40;37.20;;;;;;5199520;28;20946;-48
2023/04/28 08:52:16;;;;;;;5.87;3.80;;;14.80;38.10;;;;;;5207833;28;20592;-48
2023/04/28 08:54:48;;;;;;;2.53;2.43;;;14.40;39.10;;;;;;5194697;28;20454;-49
2023/04/28 08:57:20;;;;;;;8.93;3.50;;;14.10;39.50;;;;;;5202204;28;20442;-48
2023/04/28 08:59:51;;;;;;;8.13;2.90;;;14.00;40.00;;;;;;5190727;28;20546;-47
2023/04/28 09:02:21;;;;;;;9.93;3.23;;;14.00;40.30;;;;;;5200081;28;20533;-49
2023/04/28 09:04:52;;;;;;;13.93;3.20;;;13.80;40.60;;;;;;5195208;28;20696;-47
2023/04/28 09:07:23;;;;;;;3.27;2.33;;;13.80;41.00;;;;;;5202900;28;20607;-50
2023/04/28 09:10:17;;;;;;;12.70;3.17;;;13.80;40.80;;;;;;5191395;28;20215;-49
2023/04/28 09:12:50;;;;;;;4.37;2.90;;;13.80;41.00;;;;;;5193727;28;20192;-49
2023/04/28 09:15:40;;;;;;;4.33;3.70;;;13.90;41.10;;;;;;5190447;28;21023;-48
2023/04/28 09:18:14;;;;;;;4.63;3.17;;;13.90;40.50;;;;;;5194256;28;20825;-48
2023/04/28 09:20:45;;;;;;;7.30;2.77;;;14.00;40.50;;;;;;5195491;28;20446;-48
2023/04/28 09:23:20;;;;;;;3.57;3.23;;;14.10;40.70;;;;;;5211841;28;20969;-49
2023/04/28 09:26:01;;;;;;;6.07;3.33;;;14.10;40.70;;;;;;5199264;28;20462;-45
2023/04/28 09:28:33;;;;;;;5.23;3.30;;;14.20;41.10;;;;;;5199230;28;20458;-48
2023/04/28 09:31:04;;;;;;;7.47;2.93;;;14.30;40.50;;;;;;5190477;28;20989;-47
2023/04/28 09:33:34;;;;;;;5.03;3.53;;;14.30;40.40;;;;;;5179208;28;20546;-48
2023/04/28 09:36:05;;;;;;;7.70;4.70;;;14.40;40.40;;;;;;5200103;28;20234;-47
2023/04/28 09:38:42;;;;;;;3.57;3.37;;;14.40;40.50;;;;;;5200530;28;20211;-49
2023/04/28 09:41:13;;;;;;;7.00;3.60;;;14.50;40.80;;;;;;5198944;28;20180;-45
2023/04/28 09:43:44;;;;;;;7.57;5.00;;;14.80;40.50;;;;;;5215370;28;20465;-48
2023/04/28 09:46:28;;;;;;;3.73;3.40;;;14.90;40.20;;;;;;5201199;28;21628;-46
2023/04/28 09:49:01;;;;;;;3.30;3.00;;;14.90;39.70;;;;;;5197190;28;20214;-46
2023/04/28 09:51:33;;;;;;;8.33;3.47;;;15.10;40.20;;;;;;5202055;28;20462;-46
2023/04/28 09:54:04;;;;;;;7.53;4.50;;;15.40;39.50;;;;;;5193485;28;20447;-45
2023/04/28 09:56:38;;;;;;;3.43;3.13;;;15.40;38.70;;;;;;5197597;28;20449;-45
2023/04/28 09:59:09;;;;;;;5.53;3.20;;;15.30;39.30;;;;;;5212786;28;20450;-46
2023/04/28 10:01:42;;;;;;;4.67;3.13;;;15.10;39.40;;;;;;5195602;28;20435;-47
2023/04/28 10:04:13;;;;;;;10.87;3.93;;;15.20;40.20;;;;;;5191517;28;20260;-45
2023/04/28 10:06:44;;;;;;;6.23;4.50;;;15.20;40.00;;;;;;5198824;28;20880;-46
2023/04/28 10:09:16;;;;;;;3.80;3.37;;;15.40;40.00;;;;;;5201298;28;20449;-46
2023/04/28 10:11:48;;;;;;;8.40;4.50;;;15.40;39.70;;;;;;5208921;28;20469;-47
2023/04/28 10:14:19;;;;;;;4.13;3.70;;;15.50;40.20;;;;;;5199386;28;20473;-45
2023/04/28 10:16:50;;;;;;;13.73;4.27;;;15.80;39.90;;;;;;5201701;28;20430;-45
2023/04/28 10:19:21;;;;;;;3.63;3.33;;;16.10;39.30;;;;;;5204762;28;20418;-46
2023/04/28 10:22:17;;;;;;;7.00;4.10;;;16.10;38.90;;;;;;5201181;28;20469;-46
2023/04/28 10:25:11;;;;;;;5.87;3.63;;;15.90;39.30;;;;;;5203322;28;20203;-46
2023/04/28 10:27:45;;;;;;;5.03;3.73;;;15.70;39.40;;;;;;5200444;28;20445;-46
2023/04/28 10:30:21;;;;;;;4.43;3.57;;;15.60;39.80;;;;;;5196459;28;20449;-44
2023/04/28 10:33:08;;;;;;;9.20;3.80;;;15.60;40.20;;;;;;5205870;28;20809;-46
2023/04/28 10:35:42;;;;;;;9.70;3.23;;;15.70;40.40;;;;;;5202068;28;20454;-47
2023/04/28 10:38:14;;;;;;;5.07;4.40;;;15.60;39.90;;;;;;5204329;28;20448;-46
2023/04/28 10:40:49;;;;;;;4.80;3.70;;;15.70;40.10;;;;;;5220162;28;20496;-46
2023/04/28 10:43:31;;;;;;;11.43;4.17;;;15.50;39.70;;;;;;5204206;28;20495;-46
2023/04/28 10:46:06;;;;;;;4.40;4.10;;;15.30;40.50;;;;;;5200581;28;20434;-46
2023/04/28 10:48:46;;;;;;;9.70;3.90;;;15.20;41.00;;;;;;5204806;28;20484;-45
2023/04/28 10:51:23;;;;;;;4.17;3.77;;;15.30;41.30;;;;;;5219509;28;20493;-46
2023/04/28 10:53:56;;;;;;;3.83;3.50;;;15.50;40.90;;;;;;5194785;28;20449;-47
2023/04/28 10:56:27;;;;;;;4.33;3.90;;;15.50;40.40;;;;;;5194059;28;20496;-46
2023/04/28 10:58:59;;;;;;;7.77;4.00;;;15.40;40.80;;;;;;5193761;28;20484;-46
2023/04/28 11:01:33;;;;;;;4.90;3.20;;;15.50;40.60;;;;;;5193537;28;20606;-47
2023/04/28 11:04:12;;;;;;;6.03;4.30;;;15.70;41.20;;;;;;5201804;28;20980;-46
2023/04/28 11:06:44;;;;;;;6.00;4.33;;;15.80;40.70;;;;;;5180190;28;20538;-47
2023/04/28 11:09:18;;;;;;;6.03;3.87;;;15.90;40.50;;;;;;5200153;28;20803;-47
2023/04/28 11:12:10;;;;;;;8.10;3.90;;;15.80;40.80;;;;;;5194058;28;20506;-46
2023/04/28 11:14:40;;;;;;;5.10;3.50;;;16.00;40.80;;;;;;5197602;28;20803;-45
2023/04/28 11:17:16;;;;;;;6.10;3.60;;;15.90;40.70;;;;;;5190835;28;20441;-47
2023/04/28 11:19:50;;;;;;;7.63;3.70;;;16.00;40.90;;;;;;5196291;28;20701;-52
2023/04/28 11:22:22;;;;;;;14.83;4.20;;;15.90;40.20;;;;;;5199638;28;20445;-47
2023/04/28 11:24:57;;;;;;;9.80;3.90;;;16.20;40.10;;;;;;5197747;28;20465;-47
2023/04/28 11:27:30;;;;;;;11.27;3.90;;;16.60;39.90;;;;;;5194202;28;20441;-46
2023/04/28 11:30:00;;;;;;;4.23;3.77;;;16.80;39.60;;;;;;5210348;28;20453;-47
2023/04/28 11:32:33;;;;;;;3.63;2.93;;;16.70;39.60;;;;;;5192032;28;20465;-46
2023/04/28 11:35:08;;;;;;;12.40;4.37;;;16.60;39.70;;;;;;5192387;28;20757;-46
2023/04/28 11:37:39;;;;;;;5.80;3.53;;;16.60;40.20;;;;;;5196564;28;20438;-51
2023/04/28 11:40:11;;;;;;;6.30;3.87;;;16.50;39.70;;;;;;5197760;28;20775;-47
2023/04/28 11:42:48;;;;;;;5.60;3.73;;;16.50;40.20;;;;;;5214054;28;20179;-45
2023/04/28 11:45:19;;;;;;;6.80;4.23;;;16.40;40.40;;;;;;5205677;28;20503;-46
2023/04/28 11:47:50;;;;;;;7.33;4.50;;;16.20;40.30;;;;;;5194960;28;20434;-46
2023/04/28 11:50:36;;;;;;;10.53;4.30;;;16.20;41.30;;;;;;5196608;28;20199;-47
2023/04/28 11:53:07;;;;;;;5.07;3.70;;;16.10;41.00;;;;;;5197022;28;20207;-45
2023/04/28 11:55:38;;;;;;;8.40;3.63;;;16.10;41.50;;;;;;5199637;28;21654;-45
2023/04/28 11:58:24;;;;;;;9.73;4.33;;;16.40;41.30;;;;;;5196224;28;20246;-48
2023/04/28 12:01:11;;;;;;;7.03;3.80;;;16.50;40.90;;;;;;5197601;28;20454;-46
2023/04/28 12:03:46;;;;;;;14.90;4.50;;;16.80;40.10;;;;;;5195765;28;20830;-45
2023/04/28 12:06:17;;;;;;;13.07;3.40;;;17.10;40.00;;;;;;5176040;28;20462;-46
2023/04/28 12:08:48;;;;;;;8.73;3.63;;;17.20;39.30;;;;;;5198005;28;20554;-46
2023/04/28 12:11:20;;;;;;;4.53;3.43;;;17.60;39.30;;;;;;5196167;28;20557;-47
2023/04/28 12:14:17;;;;;;;5.70;5.10;;;17.80;38.60;;;;;;5208716;28;21701;-46
2023/04/28 12:16:49;;;;;;;9.80;4.03;;;17.80;38.60;;;;;;5189267;28;20455;-48
2023/04/28 12:19:20;;;;;;;4.80;4.40;;;17.70;38.50;;;;;;5192323;28;20442;-46
2023/04/28 12:22:04;;;;;;;4.83;4.33;;;17.90;38.80;;;;;;5192360;28;20501;-46
2023/04/28 12:24:35;;;;;;;12.73;4.80;;;18.00;38.30;;;;;;5198888;28;20275;-48
2023/04/28 12:27:19;;;;;;;8.27;5.17;;;18.00;38.20;;;;;;5196092;28;20439;-47
2023/04/28 12:29:50;;;;;;;12.30;4.50;;;17.70;38.50;;;;;;5202115;28;20608;-46
2023/04/28 12:32:40;;;;;;;4.73;4.23;;;17.80;39.00;;;;;;5209600;28;20523;-47
2023/04/28 12:35:10;;;;;;;6.30;4.20;;;18.10;38.80;;;;;;5199121;28;20492;-48
2023/04/28 12:37:42;;;;;;;12.57;3.73;;;18.30;38.60;;;;;;5199634;28;20439;-47
2023/04/28 12:40:13;;;;;;;8.07;4.20;;;17.90;38.30;;;;;;5194315;28;20528;-47
2023/04/28 12:42:44;;;;;;;11.53;4.30;;;17.60;38.80;;;;;;5212919;28;20501;-46
2023/04/28 12:45:15;;;;;;;14.63;4.30;;;17.50;39.60;;;;;;5194594;28;20953;-47
2023/04/28 12:47:46;;;;;;;8.20;4.13;;;17.70;39.90;;;;;;5194239;28;20183;-46
2023/04/28 12:50:17;;;;;;;16.23;4.47;;;17.60;39.30;;;;;;5197642;28;20890;-46
2023/04/28 12:52:48;;;;;;;4.63;4.23;;;17.30;39.60;;;;;;5200736;28;20474;-45
2023/04/28 12:55:18;;;;;;;5.63;4.10;;;17.30;40.10;;;;;;5204915;28;20187;-44
2023/04/28 12:57:49;;;;;;;7.50;4.20;;;17.30;40.20;;;;;;5212356;28;20295;-45
2023/04/28 13:00:22;;;;;;;5.97;4.63;;;17.50;40.20;;;;;;5200968;28;20180;-47
2023/04/28 13:02:52;;;;;;;6.07;5.50;;;17.90;40.40;;;;;;5201417;28;20179;-46
2023/04/28 13:05:23;;;;;;;6.83;3.90;;;18.00;38.70;;;;;;5200232;28;20793;-46
2023/04/28 13:07:54;;;;;;;6.37;4.00;;;17.90;39.30;;;;;;5204277;28;20246;-46
2023/04/28 13:10:25;;;;;;;5.33;4.30;;;17.70;40.10;;;;;;5203459;28;20628;-45
2023/04/28 13:12:56;;;;;;;4.77;3.97;;;17.80;40.00;;;;;;5195847;28;20301;-46
2023/04/28 13:15:26;;;;;;;4.97;4.13;;;17.80;39.50;;;;;;5201147;28;20430;-46
2023/04/28 13:17:58;;;;;;;9.50;3.87;;;18.10;39.60;;;;;;5194518;28;20573;-46